createdAt,value
2018-02-08T00:02:13.959Z,28.27
2018-02-08T00:04:42.270Z,31.62
2018-02-08T00:07:10.615Z,29.87
2018-02-08T00:09:38.933Z,28.97
2018-02-08T00:12:07.266Z,29.20
2018-02-08T00:14:35.584Z,27.38
2018-02-08T00:17:03.928Z,30.38
2018-02-08T00:19:32.259Z,29.88
2018-02-08T00:22:00.614Z,29.17
2018-02-08T00:24:28.945Z,29.70
2018-02-08T00:26:57.354Z,30.97
2018-02-08T00:29:25.662Z,29.13
2018-02-08T00:31:53.979Z,30.62
2018-02-08T00:34:22.319Z,26.80
2018-02-08T00:36:50.641Z,26.60
2018-02-08T00:39:18.975Z,30.15
2018-02-08T00:41:47.291Z,29.33
2018-02-08T00:44:15.662Z,29.45
2018-02-08T00:46:43.976Z,29.12
2018-02-08T00:49:12.311Z,28.32
2018-02-08T00:51:40.625Z,25.82
2018-02-08T00:54:08.961Z,22.73
2018-02-08T00:56:37.279Z,22.12
2018-02-08T00:59:05.609Z,23.02
2018-02-08T01:01:33.932Z,24.68
2018-02-08T01:04:02.271Z,22.05
2018-02-08T01:06:29.822Z,24.07
2018-02-08T01:08:58.175Z,24.07
2018-02-08T01:11:26.488Z,23.80
2018-02-08T01:13:54.826Z,24.88
2018-02-08T01:16:23.148Z,24.25
2018-02-08T01:18:51.488Z,23.43
2018-02-08T01:21:19.806Z,26.15
2018-02-08T01:23:48.150Z,26.50
2018-02-08T01:26:16.454Z,25.65
2018-02-08T01:28:44.791Z,24.30
2018-02-08T01:31:13.108Z,25.82
2018-02-08T01:33:41.451Z,27.05
2018-02-08T01:36:09.763Z,26.90
2018-02-08T01:38:38.093Z,27.27
2018-02-08T01:41:06.417Z,24.27
2018-02-08T01:43:34.754Z,27.38
2018-02-08T01:46:03.062Z,26.82
2018-02-08T01:48:31.395Z,24.95
2018-02-08T01:50:59.715Z,26.13
2018-02-08T01:53:28.055Z,26.40
2018-02-08T01:55:56.371Z,25.43
2018-02-08T01:58:24.703Z,25.85
2018-02-08T02:00:53.023Z,25.20
2018-02-08T02:03:21.359Z,24.40
2018-02-08T02:05:49.679Z,22.28
2018-02-08T02:08:18.017Z,25.08
2018-02-08T02:10:46.331Z,24.93
2018-02-08T02:13:14.673Z,22.17
2018-02-08T02:15:43.011Z,23.37
2018-02-08T02:18:11.355Z,21.78
2018-02-08T02:20:39.672Z,25.72
2018-02-08T02:23:07.985Z,22.28
2018-02-08T02:25:36.319Z,24.05
2018-02-08T02:28:04.646Z,21.55
2018-02-08T02:30:32.987Z,25.72
2018-02-08T02:33:01.309Z,24.30
2018-02-08T02:35:29.647Z,24.10
2018-02-08T02:37:57.970Z,24.67
2018-02-08T02:40:26.316Z,22.12
2018-02-08T02:42:54.635Z,25.00
2018-02-08T02:45:22.977Z,22.93
2018-02-08T02:47:51.299Z,25.17
2018-02-08T02:50:19.635Z,23.47
2018-02-08T02:52:47.948Z,23.80
2018-02-08T02:55:16.296Z,23.08
2018-02-08T02:57:44.624Z,25.00
2018-02-08T03:00:12.958Z,22.05
2018-02-08T03:02:41.312Z,21.78
2018-02-08T03:05:09.654Z,21.10
2018-02-08T03:07:37.976Z,22.70
2018-02-08T03:10:06.314Z,22.53
2018-02-08T03:12:34.627Z,22.87
2018-02-08T03:15:02.978Z,21.02
2018-02-08T03:17:31.303Z,21.10
2018-02-08T03:19:59.646Z,22.43
2018-02-08T03:22:27.962Z,23.25
2018-02-08T03:24:56.323Z,19.62
2018-02-08T03:27:24.646Z,21.97
2018-02-08T03:29:52.992Z,21.98
2018-02-08T03:32:21.318Z,22.50
2018-02-08T03:34:49.651Z,21.33
2018-02-08T03:37:17.966Z,22.28
2018-02-08T03:39:46.304Z,22.50
2018-02-08T03:42:14.630Z,21.18
2018-02-08T03:44:42.967Z,20.22
2018-02-08T03:47:11.287Z,21.77
2018-02-08T03:49:39.619Z,21.57
2018-02-08T03:52:07.940Z,21.27
2018-02-08T03:54:36.279Z,23.02
2018-02-08T03:57:04.596Z,22.68
2018-02-08T03:59:33.583Z,21.45
2018-02-08T04:02:01.894Z,20.97
2018-02-08T04:04:30.231Z,22.23
2018-02-08T04:06:58.553Z,21.15
2018-02-08T04:09:26.899Z,21.03
2018-02-08T04:11:55.231Z,22.65
2018-02-08T04:14:23.545Z,23.18
2018-02-08T04:16:51.897Z,21.58
2018-02-08T04:19:20.218Z,22.12
2018-02-08T04:21:48.566Z,21.78
2018-02-08T04:24:16.883Z,22.02
2018-02-08T04:26:45.233Z,22.25
2018-02-08T04:29:13.596Z,21.95
2018-02-08T04:31:41.984Z,19.52
2018-02-08T04:34:10.334Z,21.10
2018-02-08T04:36:37.938Z,21.88
2018-02-08T04:39:18.185Z,21.32
2018-02-08T04:41:58.379Z,19.38
2018-02-08T04:44:38.543Z,19.48
2018-02-08T04:47:28.536Z,21.33
2018-02-08T04:49:56.849Z,18.53
2018-02-08T04:52:25.191Z,19.73
2018-02-08T04:54:53.515Z,20.12
2018-02-08T04:57:21.855Z,25.83
2018-02-08T04:59:50.175Z,21.57
2018-02-08T05:02:20.160Z,21.93
2018-02-08T05:04:48.480Z,20.68
2018-02-08T05:07:16.818Z,18.83
2018-02-08T05:09:45.151Z,20.82
2018-02-08T05:12:13.627Z,21.38
2018-02-08T05:14:42.167Z,20.27
2018-02-08T05:17:10.522Z,21.50
2018-02-08T05:19:38.854Z,20.47
2018-02-08T05:22:07.199Z,20.98
2018-02-08T05:24:35.506Z,21.00
2018-02-08T05:27:03.842Z,18.98
2018-02-08T05:29:32.161Z,20.17
2018-02-08T05:32:00.499Z,19.32
2018-02-08T05:34:28.810Z,21.73
2018-02-08T05:36:57.156Z,21.10
2018-02-08T05:39:25.479Z,20.25
2018-02-08T05:41:53.822Z,19.82
2018-02-08T05:44:22.138Z,21.47
2018-02-08T05:46:50.484Z,22.70
2018-02-08T05:49:18.803Z,20.08
2018-02-08T05:51:47.144Z,21.40
2018-02-08T05:54:15.462Z,22.68
2018-02-08T05:56:43.859Z,22.05
2018-02-08T05:59:12.704Z,21.85
2018-02-08T06:01:41.213Z,21.28
2018-02-08T06:04:09.579Z,20.35
2018-02-08T06:06:37.915Z,19.37
2018-02-08T06:09:06.235Z,18.88
2018-02-08T06:11:34.575Z,20.93
2018-02-08T06:14:02.893Z,19.98
2018-02-08T06:16:31.211Z,21.28
2018-02-08T06:18:59.573Z,21.08
2018-02-08T06:21:27.890Z,21.28
2018-02-08T06:23:56.238Z,20.87
2018-02-08T06:26:24.560Z,21.12
2018-02-08T06:28:52.902Z,27.63
2018-02-08T06:31:21.222Z,29.13
2018-02-08T06:33:49.559Z,30.30
2018-02-08T06:36:17.878Z,25.47
2018-02-08T06:38:46.244Z,21.18
2018-02-08T06:41:14.634Z,19.98
2018-02-08T06:43:43.044Z,22.07
2018-02-08T06:46:12.749Z,22.82
2018-02-08T06:48:41.111Z,21.93
2018-02-08T06:51:09.464Z,21.35
2018-02-08T06:53:37.803Z,28.28
2018-02-08T06:56:06.117Z,23.93
2018-02-08T06:58:34.456Z,26.17
2018-02-08T07:01:02.785Z,23.42
2018-02-08T07:03:31.127Z,23.20
2018-02-08T07:05:59.452Z,21.52
2018-02-08T07:08:27.793Z,22.25
2018-02-08T07:10:56.124Z,21.50
2018-02-08T07:13:24.471Z,49.47
2018-02-08T07:15:52.801Z,35.32
2018-02-08T07:18:21.138Z,25.05
2018-02-08T07:20:49.456Z,23.73
2018-02-08T07:23:17.799Z,49.78
2018-02-08T07:25:46.105Z,51.80
2018-02-08T07:28:14.458Z,23.25
2018-02-08T07:30:42.787Z,26.48
2018-02-08T07:33:11.128Z,26.08
2018-02-08T07:35:39.440Z,31.55
2018-02-08T07:38:07.786Z,30.57
2018-02-08T07:40:36.110Z,24.12
2018-02-08T07:43:04.454Z,27.02
2018-02-08T07:45:32.877Z,23.60
2018-02-08T07:48:01.227Z,26.52
2018-02-08T07:50:29.551Z,25.77
2018-02-08T07:52:57.894Z,30.42
2018-02-08T07:55:26.231Z,26.65
2018-02-08T07:57:54.577Z,24.52
2018-02-08T08:00:22.906Z,22.47
2018-02-08T08:02:51.220Z,24.22
2018-02-08T08:05:19.566Z,25.80
2018-02-08T08:07:47.886Z,25.98
2018-02-08T08:10:16.240Z,26.03
2018-02-08T08:12:44.566Z,27.30
2018-02-08T08:15:12.908Z,28.00
2018-02-08T08:17:41.233Z,27.92
2018-02-08T08:20:09.571Z,26.85
2018-02-08T08:22:37.898Z,26.58
2018-02-08T08:25:06.234Z,28.33
2018-02-08T08:27:34.552Z,29.50
2018-02-08T08:30:02.895Z,33.65
2018-02-08T08:32:31.232Z,29.30
2018-02-08T08:34:59.576Z,36.63
2018-02-08T08:37:27.896Z,40.13
2018-02-08T08:39:56.243Z,53.65
2018-02-08T08:42:24.562Z,46.32
2018-02-08T08:44:52.900Z,33.08
2018-02-08T08:47:21.215Z,38.80
2018-02-08T08:49:49.562Z,43.97
2018-02-08T09:02:37.044Z,53.30
2018-02-08T09:05:05.359Z,80.53
2018-02-08T09:07:32.887Z,52.15
2018-02-08T09:10:01.204Z,39.68
2018-02-08T09:12:29.496Z,29.48
2018-02-08T09:14:57.812Z,29.27
2018-02-08T09:17:26.117Z,30.50
2018-02-08T09:19:54.432Z,67.43
2018-02-08T09:22:22.728Z,49.47
2018-02-08T09:24:51.044Z,34.23
2018-02-08T09:27:19.336Z,31.03
2018-02-08T09:29:47.651Z,41.15
2018-02-08T09:32:15.943Z,35.57
2018-02-08T09:34:44.263Z,29.73
2018-02-08T09:37:12.560Z,43.92
2018-02-08T09:39:40.874Z,30.45
2018-02-08T09:42:09.163Z,28.17
2018-02-08T09:44:36.703Z,27.55
2018-02-08T09:47:05.000Z,28.95
2018-02-08T09:49:33.321Z,30.45
2018-02-08T09:52:01.616Z,33.02
2018-02-08T09:54:29.935Z,42.67
2018-02-08T09:56:58.228Z,37.63
2018-02-08T09:59:26.542Z,36.37
2018-02-08T10:01:54.832Z,46.05
2018-02-08T10:04:23.119Z,39.02
2018-02-08T10:06:51.432Z,76.58
2018-02-08T10:09:19.728Z,38.13
2018-02-08T10:11:48.085Z,33.42
2018-02-08T10:14:16.376Z,32.72
2018-02-08T10:16:44.692Z,32.53
2018-02-08T10:19:12.980Z,32.68
2018-02-08T10:21:41.292Z,31.90
2018-02-08T10:24:09.584Z,30.07
2018-02-08T10:26:37.892Z,32.10
2018-02-08T10:29:06.183Z,30.75
2018-02-08T10:31:34.592Z,33.77
2018-02-08T10:34:02.885Z,31.77
2018-02-08T10:36:31.192Z,32.40
2018-02-08T10:38:59.487Z,113.67
2018-02-08T10:41:27.860Z,35.92
2018-02-08T10:43:56.148Z,39.65
2018-02-08T10:46:23.687Z,41.37
2018-02-08T10:48:51.977Z,27.18
2018-02-08T10:51:20.288Z,26.33
2018-02-08T10:53:48.580Z,26.68
2018-02-08T10:56:16.890Z,27.08
2018-02-08T10:58:45.180Z,23.78
2018-02-08T11:01:13.500Z,20.28
2018-02-08T11:03:41.832Z,20.80
2018-02-08T11:06:09.373Z,22.55
2018-02-08T11:08:37.655Z,24.92
2018-02-08T11:11:05.195Z,22.58
2018-02-08T11:13:33.484Z,18.85
2018-02-08T11:16:01.792Z,15.82
2018-02-08T11:18:30.080Z,13.28
2018-02-08T11:20:58.392Z,13.40
2018-02-08T11:23:26.679Z,13.38
2018-02-08T11:25:54.987Z,14.55
2018-02-08T11:28:22.515Z,14.43
2018-02-08T11:30:50.824Z,14.55
2018-02-08T11:33:19.117Z,12.55
2018-02-08T11:35:47.432Z,14.85
2018-02-08T11:38:15.720Z,14.82
2018-02-08T11:40:44.048Z,14.65
2018-02-08T11:43:12.342Z,16.17
2018-02-08T11:45:40.663Z,15.10
2018-02-08T11:48:08.952Z,16.15
2018-02-08T11:50:37.245Z,17.18
2018-02-08T11:53:05.557Z,16.28
2018-02-08T11:55:33.851Z,15.75
2018-02-08T11:58:02.168Z,14.37
2018-02-08T12:00:30.460Z,16.73
2018-02-08T12:02:58.776Z,14.88
2018-02-08T12:05:27.072Z,16.82
2018-02-08T12:07:55.388Z,15.33
2018-02-08T12:10:23.671Z,15.83
2018-02-08T12:12:51.991Z,16.30
2018-02-08T12:15:20.285Z,14.82
2018-02-08T12:17:48.598Z,16.22
2018-02-08T12:20:16.928Z,16.72
2018-02-08T12:22:44.503Z,14.83
2018-02-08T12:25:12.791Z,16.23
2018-02-08T12:27:41.100Z,15.30
2018-02-08T12:30:09.388Z,13.75
2018-02-08T12:32:37.700Z,15.62
2018-02-08T12:35:05.991Z,14.13
2018-02-08T12:37:34.300Z,13.77
2018-02-08T12:40:02.589Z,13.22
2018-02-08T12:42:30.159Z,11.63
2018-02-08T12:44:58.456Z,11.88
2018-02-08T12:47:26.768Z,12.18
2018-02-08T12:49:55.060Z,12.37
2018-02-08T12:52:23.372Z,11.35
2018-02-08T12:54:51.660Z,11.55
2018-02-08T12:57:19.204Z,13.07
2018-02-08T12:59:47.499Z,24.55
2018-02-08T13:02:15.811Z,56.87
2018-02-08T13:04:44.103Z,32.38
2018-02-08T13:07:12.413Z,24.72
2018-02-08T13:09:40.705Z,64.57
2018-02-08T13:12:09.015Z,43.63
2018-02-08T13:14:37.309Z,29.88
2018-02-08T13:17:05.623Z,22.28
2018-02-08T13:19:33.911Z,24.18
2018-02-08T13:22:01.460Z,12.38
2018-02-08T13:24:29.747Z,9.67
2018-02-08T13:26:58.041Z,10.67
2018-02-08T13:29:26.352Z,26.30
2018-02-08T13:31:54.632Z,39.42
2018-02-08T13:34:22.943Z,14.12
2018-02-08T13:36:51.232Z,37.68
2018-02-08T13:39:24.147Z,13.93
2018-02-08T13:41:52.436Z,28.37
2018-02-08T13:44:20.748Z,9.25
2018-02-08T13:46:49.035Z,9.78
2018-02-08T13:49:19.873Z,9.98
2018-02-08T13:52:00.028Z,11.07
2018-02-08T13:54:44.003Z,11.57
2018-02-08T13:57:17.905Z,20.92
2018-02-08T13:59:46.815Z,8.35
2018-02-08T14:02:15.112Z,13.75
2018-02-08T14:04:43.432Z,13.38
2018-02-08T14:07:11.728Z,9.13
2018-02-08T14:09:40.036Z,9.72
2018-02-08T14:12:08.321Z,8.95
2018-02-08T14:14:36.631Z,10.15
2018-02-08T14:17:04.920Z,11.07
2018-02-08T14:19:33.224Z,7.48
2018-02-08T14:22:01.560Z,19.73
2018-02-08T14:24:29.848Z,9.58
2018-02-08T14:26:58.139Z,12.50
2018-02-08T14:29:26.444Z,9.88
2018-02-08T14:31:54.731Z,8.82
2018-02-08T14:34:23.045Z,11.43
2018-02-08T14:36:51.328Z,9.38
2018-02-08T14:39:19.642Z,8.50
2018-02-08T14:41:47.936Z,8.72
2018-02-08T14:44:16.241Z,8.53
2018-02-08T14:46:44.524Z,8.18
2018-02-08T14:49:12.840Z,7.98
2018-02-08T14:51:41.124Z,9.17
2018-02-08T14:54:09.472Z,6.45
2018-02-08T14:56:37.751Z,7.30
2018-02-08T14:59:06.036Z,7.73
2018-02-08T15:01:34.348Z,7.95
2018-02-08T15:04:02.636Z,8.65
2018-02-08T15:06:30.944Z,11.83
2018-02-08T15:08:59.218Z,7.17
2018-02-08T15:11:27.532Z,9.38
2018-02-08T15:13:55.816Z,8.15
2018-02-08T15:16:24.120Z,7.95
2018-02-08T15:18:52.408Z,57.17
2018-02-08T15:21:20.720Z,9.03
2018-02-08T15:23:49.003Z,12.20
2018-02-08T15:26:17.304Z,9.10
2018-02-08T15:28:45.588Z,8.65
2018-02-08T15:31:13.905Z,13.85
2018-02-08T15:33:42.196Z,14.30
2018-02-08T15:36:10.503Z,14.88
2018-02-08T15:38:38.800Z,11.60
2018-02-08T15:41:07.116Z,14.12
2018-02-08T15:43:35.414Z,12.22
2018-02-08T15:46:03.786Z,11.50
2018-02-08T15:48:32.044Z,59.57
2018-02-08T15:51:00.356Z,26.57
2018-02-08T15:53:27.886Z,16.73
2018-02-08T15:55:56.196Z,11.38
2018-02-08T15:58:24.488Z,17.28
2018-02-08T16:00:52.797Z,19.08
2018-02-08T16:03:21.092Z,43.77
2018-02-08T16:05:49.400Z,32.77
2018-02-08T16:08:17.688Z,31.28
2018-02-08T16:10:46.008Z,29.93
2018-02-08T16:13:13.535Z,25.80
2018-02-08T16:15:41.847Z,39.15
2018-02-08T16:18:10.144Z,22.32
2018-02-08T16:20:38.461Z,19.32
2018-02-08T16:23:06.756Z,24.53
2018-02-08T16:25:34.307Z,24.92
2018-02-08T16:28:02.595Z,24.58
2018-02-08T16:30:30.916Z,18.07
2018-02-08T16:32:59.212Z,21.48
2018-02-08T16:35:27.528Z,17.68
2018-02-08T16:37:55.829Z,16.02
2018-02-08T16:40:24.127Z,15.30
2018-02-08T16:42:52.444Z,15.77
2018-02-08T16:45:20.735Z,17.47
2018-02-08T16:47:49.060Z,15.97
2018-02-08T16:50:17.351Z,15.17
2018-02-08T16:52:45.667Z,14.22
2018-02-08T16:55:13.971Z,15.83
2018-02-08T16:57:42.281Z,14.42
2018-02-08T17:00:10.570Z,16.27
2018-02-08T17:02:38.880Z,29.28
2018-02-08T17:05:07.184Z,24.17
2018-02-08T17:07:34.733Z,24.13
2018-02-08T17:10:03.026Z,31.25
2018-02-08T17:12:31.341Z,29.78
2018-02-08T17:14:59.639Z,27.55
2018-02-08T17:17:27.952Z,25.68
2018-02-08T17:19:56.243Z,23.77
2018-02-08T17:22:24.560Z,20.95
2018-02-08T17:24:52.851Z,18.93
2018-02-08T17:27:21.164Z,19.77
2018-02-08T17:29:49.455Z,19.53
2018-02-08T17:32:17.015Z,16.90
2018-02-08T17:34:45.307Z,17.57
2018-02-08T17:37:12.860Z,19.05
2018-02-08T17:39:41.154Z,19.08
2018-02-08T17:42:09.475Z,18.77
2018-02-08T17:44:37.767Z,19.32
2018-02-08T17:47:06.080Z,15.93
2018-02-08T17:49:34.380Z,16.18
2018-02-08T17:52:01.928Z,19.27
2018-02-08T17:54:30.224Z,24.15
2018-02-08T17:56:58.540Z,38.72
2018-02-08T17:59:26.839Z,38.93
2018-02-08T18:01:55.152Z,38.88
2018-02-08T18:04:23.453Z,40.33
2018-02-08T18:06:51.776Z,33.28
2018-02-08T18:09:20.109Z,23.25
2018-02-08T18:11:48.428Z,20.53
2018-02-08T18:14:16.727Z,21.52
2018-02-08T18:16:45.012Z,17.57
2018-02-08T18:19:13.333Z,15.37
2018-02-08T18:21:41.624Z,17.03
2018-02-08T18:24:09.946Z,16.33
2018-02-08T18:26:38.240Z,15.20
2018-02-08T18:29:06.556Z,16.22
2018-02-08T18:31:34.856Z,17.68
2018-02-08T18:34:03.204Z,18.53
2018-02-08T18:36:31.510Z,15.77
2018-02-08T18:38:59.833Z,14.85
2018-02-08T18:41:28.132Z,16.20
2018-02-08T18:43:56.496Z,15.48
2018-02-08T18:46:24.031Z,14.35
2018-02-08T18:48:52.348Z,14.58
2018-02-08T18:51:20.646Z,14.43
2018-02-08T18:53:48.244Z,14.30
2018-02-08T18:56:16.536Z,16.25
2018-02-08T18:58:44.857Z,15.32
2018-02-08T19:01:13.153Z,16.12
2018-02-08T19:03:41.468Z,17.05
2018-02-08T19:06:09.832Z,15.77
2018-02-08T19:08:39.133Z,12.57
2018-02-08T19:11:07.436Z,13.50
2018-02-08T19:13:35.752Z,18.32
2018-02-08T19:16:04.044Z,16.05
2018-02-08T19:18:32.370Z,14.30
2018-02-08T19:21:00.665Z,15.83
2018-02-08T19:23:28.992Z,15.03
2018-02-08T19:25:57.282Z,17.32
2018-02-08T19:28:25.600Z,16.43
2018-02-08T19:30:53.914Z,14.23
2018-02-08T19:33:22.248Z,14.83
2018-02-08T19:35:50.628Z,16.32
2018-02-08T19:38:18.192Z,13.67
2018-02-08T19:40:46.523Z,14.32
2018-02-08T19:43:14.843Z,13.88
2018-02-08T19:45:43.156Z,13.00
2018-02-08T19:48:11.476Z,13.72
2018-02-08T19:50:39.766Z,32.85
2018-02-08T19:53:07.308Z,125.38
2018-02-08T19:55:35.632Z,127.10
2018-02-08T19:58:03.988Z,113.15
2018-02-08T20:00:32.470Z,42.37
2018-02-08T20:03:00.801Z,31.90
2018-02-08T20:05:29.124Z,25.35
2018-02-08T20:07:57.417Z,16.33
2018-02-08T20:10:25.737Z,18.35
2018-02-08T20:12:54.032Z,20.93
2018-02-08T20:15:36.202Z,17.83
2018-02-08T20:18:04.615Z,18.63
2018-02-08T20:20:32.928Z,16.50
2018-02-08T20:23:01.224Z,15.40
2018-02-08T20:25:35.114Z,20.33
2018-02-08T20:28:03.420Z,15.18
2018-02-08T20:30:31.764Z,19.93
2018-02-08T20:33:00.091Z,18.13
2018-02-08T20:35:28.409Z,15.73
2018-02-08T20:37:56.710Z,14.48
2018-02-08T20:40:25.693Z,14.58
2018-02-08T20:42:59.584Z,13.42
2018-02-08T20:45:27.903Z,13.37
2018-02-08T20:47:55.441Z,13.43
2018-02-08T20:50:23.761Z,13.10
2018-02-08T20:52:51.284Z,13.45
2018-02-08T20:55:19.601Z,13.92
2018-02-08T20:57:47.943Z,14.77
2018-02-08T21:00:16.260Z,12.52
2018-02-08T21:02:44.552Z,12.92
2018-02-08T21:05:12.100Z,12.92
2018-02-08T21:07:40.524Z,12.12
2018-02-08T21:10:08.893Z,14.33
2018-02-08T21:12:37.198Z,12.60
2018-02-08T21:15:05.520Z,12.58
2018-02-08T21:17:33.829Z,14.60
2018-02-08T21:20:02.150Z,18.02
2018-02-08T21:22:30.512Z,14.73
2018-02-08T21:24:58.795Z,17.32
2018-02-08T21:27:27.128Z,25.07
2018-02-08T21:29:55.443Z,18.37
2018-02-08T21:32:23.744Z,16.60
2018-02-08T21:34:52.064Z,16.30
2018-02-08T21:37:20.361Z,16.60
2018-02-08T21:39:48.681Z,19.15
2018-02-08T21:42:16.980Z,22.90
2018-02-08T21:44:45.288Z,28.18
2018-02-08T21:47:13.583Z,26.68
2018-02-08T21:49:41.879Z,18.77
2018-02-08T21:52:10.197Z,16.68
2018-02-08T21:54:38.500Z,13.27
2018-02-08T21:57:06.832Z,17.55
2018-02-08T21:59:35.144Z,15.75
2018-02-08T22:02:02.696Z,14.40
2018-02-08T22:04:30.983Z,13.15
2018-02-08T22:06:58.535Z,14.03
2018-02-08T22:09:26.859Z,13.03
2018-02-08T22:11:55.175Z,13.40
2018-02-08T22:14:23.483Z,13.55
2018-02-08T22:16:51.804Z,13.27
2018-02-08T22:19:20.104Z,11.50
2018-02-08T22:21:48.429Z,12.65
2018-02-08T22:24:16.740Z,11.77
2018-02-08T22:26:45.053Z,13.87
2018-02-08T22:29:13.343Z,15.55
2018-02-08T22:31:41.660Z,14.53
2018-02-08T22:34:09.958Z,11.97
2018-02-08T22:36:38.273Z,12.20
2018-02-08T22:39:06.571Z,11.77
2018-02-08T22:41:34.893Z,11.45
2018-02-08T22:44:03.200Z,10.82
2018-02-08T22:46:31.521Z,11.83
2018-02-08T22:48:59.821Z,10.75
2018-02-08T22:51:28.139Z,11.33
2018-02-08T22:53:56.431Z,10.32
2018-02-08T22:56:24.739Z,11.48
2018-02-08T22:58:53.037Z,11.65
2018-02-08T23:01:21.353Z,11.20
2018-02-08T23:03:49.643Z,11.25
2018-02-08T23:06:17.967Z,10.78
2018-02-08T23:08:46.259Z,11.35
2018-02-08T23:11:14.579Z,12.40
2018-02-08T23:13:42.877Z,12.42
2018-02-08T23:16:11.404Z,13.92
2018-02-08T23:18:39.708Z,13.98
2018-02-08T23:21:08.023Z,12.42
2018-02-08T23:23:36.316Z,12.78
2018-02-08T23:26:04.638Z,12.08
2018-02-08T23:28:32.960Z,12.78
2018-02-08T23:31:01.261Z,12.40
2018-02-08T23:33:29.571Z,11.58
2018-02-08T23:35:57.863Z,11.25
2018-02-08T23:38:26.180Z,12.02
2018-02-08T23:40:53.719Z,11.23
2018-02-08T23:43:22.027Z,12.37
2018-02-08T23:45:50.328Z,11.73
2018-02-08T23:48:18.643Z,13.35
2018-02-08T23:50:46.944Z,14.50
2018-02-08T23:53:15.260Z,11.03
2018-02-08T23:55:43.552Z,11.63
2018-02-08T23:58:11.864Z,12.67
